Time;durP1;ratioP1;P1;durP2;ratioP2;P2;SDS_P1;SDS_P2;PMS_P1;PMS_P2;Temp;Humidity;BMP_temperature;BMP_pressure;BME280_temperature;BME280_humidity;BME280_pressure;Samples;Min_cycle;Max_cycle;Signal;HPM_P1;HPM_P2
2023/07/06 00:00:14;;;;;;;10.40;3.58;;;19.00;99.90;;;;;;5047068;28;20052;-65
2023/07/06 00:02:41;;;;;;;6.32;4.00;;;19.10;99.90;;;;;;5049005;28;20789;-63
2023/07/06 00:05:08;;;;;;;9.02;3.28;;;19.00;99.90;;;;;;5047877;28;20055;-61
2023/07/06 00:07:34;;;;;;;8.30;3.38;;;18.70;99.90;;;;;;5048024;28;20041;-64
2023/07/06 00:10:00;;;;;;;7.90;3.00;;;18.60;99.90;;;;;;5044286;28;20032;-62
2023/07/06 00:12:25;;;;;;;5.05;2.72;;;18.60;99.90;;;;;;5044306;28;20033;-63
2023/07/06 00:14:51;;;;;;;6.03;3.27;;;18.50;99.90;;;;;;5047539;28;20409;-66
2023/07/06 00:17:17;;;;;;;7.97;3.20;;;18.60;99.90;;;;;;5043080;28;20515;-67
2023/07/06 00:19:43;;;;;;;5.13;2.88;;;18.80;99.90;;;;;;5047734;28;20350;-66
2023/07/06 00:22:11;;;;;;;7.32;3.85;;;18.80;99.90;;;;;;5048010;28;20138;-66
2023/07/06 00:24:37;;;;;;;5.72;3.05;;;18.90;99.90;;;;;;5057601;28;20053;-68
2023/07/06 00:27:03;;;;;;;5.00;3.22;;;18.80;99.90;;;;;;5047281;28;20028;-62
2023/07/06 00:29:34;;;;;;;8.25;3.15;;;18.70;99.90;;;;;;5061999;28;20040;-65
2023/07/06 00:32:25;;;;;;;11.88;2.97;;;18.50;99.90;;;;;;5047234;28;20029;-64
2023/07/06 00:34:51;;;;;;;8.40;3.42;;;18.20;99.90;;;;;;5050822;28;20036;-68
2023/07/06 00:37:17;;;;;;;6.33;3.20;;;18.20;99.90;;;;;;5050798;28;20039;-67
2023/07/06 00:39:43;;;;;;;5.77;3.43;;;18.10;99.90;;;;;;5051890;28;20028;-68
2023/07/06 00:42:20;;;;;;;5.43;2.95;;;18.00;99.90;;;;;;5049708;28;20028;-68
2023/07/06 00:44:55;;;;;;;7.78;3.15;;;18.00;99.90;;;;;;5049816;28;20033;-67
2023/07/06 00:47:35;;;;;;;10.48;3.05;;;18.20;99.90;;;;;;5050783;28;20024;-67
2023/07/06 00:50:10;;;;;;;5.00;3.00;;;18.30;99.90;;;;;;5050060;28;20029;-69
2023/07/06 00:52:41;;;;;;;4.32;2.88;;;18.10;99.90;;;;;;5048376;28;20047;-67
2023/07/06 00:55:10;;;;;;;8.02;3.40;;;18.20;99.90;;;;;;5050051;28;20504;-68
2023/07/06 00:57:38;;;;;;;5.55;3.10;;;18.10;99.90;;;;;;5051169;28;20028;-65
2023/07/06 01:00:06;;;;;;;10.10;3.40;;;18.20;99.90;;;;;;5046553;28;20493;-68
2023/07/06 01:02:38;;;;;;;5.50;3.33;;;17.90;99.90;;;;;;5051325;28;20025;-65
2023/07/06 01:05:05;;;;;;;5.28;2.58;;;17.90;99.90;;;;;;5046107;28;20400;-62
2023/07/06 01:07:32;;;;;;;7.93;3.30;;;17.90;99.90;;;;;;5045186;28;20497;-64
2023/07/06 01:09:59;;;;;;;9.70;3.05;;;18.00;99.90;;;;;;5051326;28;20068;-65
2023/07/06 01:12:25;;;;;;;7.53;3.28;;;18.00;99.90;;;;;;5049855;28;20021;-65
2023/07/06 01:14:51;;;;;;;5.35;3.30;;;17.80;99.90;;;;;;5049531;28;20115;-62
2023/07/06 01:17:33;;;;;;;8.30;3.65;;;17.70;99.90;;;;;;5046722;28;20036;-63
2023/07/06 01:20:04;;;;;;;4.78;3.08;;;17.70;99.90;;;;;;5048477;28;20028;-62
2023/07/06 01:22:51;;;;;;;6.68;3.58;;;17.90;99.90;;;;;;5045662;28;20452;-61
2023/07/06 01:25:40;;;;;;;8.32;3.10;;;18.00;99.90;;;;;;5045959;28;20108;-62
2023/07/06 01:28:15;;;;;;;9.27;3.35;;;17.80;99.90;;;;;;5049997;28;20418;-63
2023/07/06 01:31:02;;;;;;;9.38;3.78;;;17.80;99.90;;;;;;5050333;28;20132;-62
2023/07/06 01:33:42;;;;;;;7.40;3.00;;;17.60;99.90;;;;;;5047882;28;20388;-61
2023/07/06 01:36:21;;;;;;;13.35;3.42;;;17.50;99.90;;;;;;5047279;28;20456;-63
2023/07/06 01:38:50;;;;;;;4.97;3.08;;;17.50;99.90;;;;;;5050247;28;20031;-62
2023/07/06 01:41:26;;;;;;;5.93;3.60;;;17.40;99.90;;;;;;5051509;28;20588;-62
2023/07/06 01:43:51;;;;;;;7.70;3.63;;;17.50;99.90;;;;;;5049666;28;20033;-64
2023/07/06 01:46:19;;;;;;;10.20;3.50;;;17.60;99.90;;;;;;5048371;28;20037;-64
2023/07/06 01:48:45;;;;;;;4.32;3.05;;;17.60;99.90;;;;;;5052008;28;20048;-67
2023/07/06 01:51:22;;;;;;;5.40;3.53;;;17.40;99.90;;;;;;5049125;28;20396;-66
2023/07/06 01:54:13;;;;;;;5.35;3.28;;;17.50;99.90;;;;;;5049830;28;20067;-66
2023/07/06 01:56:51;;;;;;;6.90;3.20;;;17.60;99.90;;;;;;5045152;28;20515;-66
2023/07/06 01:59:21;;;;;;;7.03;4.05;;;17.50;99.90;;;;;;5050174;28;20556;-65
2023/07/06 02:01:59;;;;;;;10.05;4.03;;;17.40;99.90;;;;;;5050198;28;20017;-63
2023/07/06 02:04:26;;;;;;;9.00;3.53;;;17.30;99.90;;;;;;5051527;28;20067;-68
2023/07/06 02:06:53;;;;;;;8.30;3.90;;;17.10;99.90;;;;;;5049158;28;20519;-66
2023/07/06 02:09:19;;;;;;;10.60;3.28;;;17.10;99.90;;;;;;5050391;28;20044;-68
2023/07/06 02:11:45;;;;;;;7.35;3.58;;;17.00;99.90;;;;;;5048066;28;20574;-66
2023/07/06 02:14:11;;;;;;;9.20;3.60;;;17.30;99.90;;;;;;5058577;28;20054;-65
2023/07/06 02:16:36;;;;;;;12.38;3.58;;;17.30;99.90;;;;;;5054342;28;20111;-65
2023/07/06 02:19:03;;;;;;;11.43;3.50;;;17.10;99.90;;;;;;5055658;28;20763;-62
2023/07/06 02:21:31;;;;;;;7.68;3.40;;;17.00;99.90;;;;;;5052032;28;20025;-62
2023/07/06 02:23:57;;;;;;;7.60;3.45;;;17.10;99.90;;;;;;5052732;28;20488;-68
2023/07/06 02:26:22;;;;;;;5.28;3.30;;;16.90;99.90;;;;;;5047179;28;20770;-64
2023/07/06 02:28:48;;;;;;;7.10;3.60;;;16.90;99.90;;;;;;5052477;28;20052;-66
2023/07/06 02:31:14;;;;;;;11.37;3.87;;;16.90;99.90;;;;;;5052608;28;20028;-64
2023/07/06 02:33:39;;;;;;;5.17;3.40;;;16.70;99.90;;;;;;5047812;28;20396;-69
2023/07/06 02:36:05;;;;;;;10.73;3.97;;;17.00;99.90;;;;;;5054148;28;20033;-69
2023/07/06 02:38:30;;;;;;;9.13;3.83;;;17.10;99.90;;;;;;5041946;28;20033;-69
2023/07/06 02:40:57;;;;;;;7.90;3.80;;;16.90;99.90;;;;;;5051344;28;20024;-69
2023/07/06 02:43:25;;;;;;;8.88;3.75;;;16.70;99.90;;;;;;5050862;28;20029;-67
2023/07/06 02:45:51;;;;;;;4.45;3.40;;;16.60;99.90;;;;;;5048984;28;20025;-69
2023/07/06 02:48:19;;;;;;;6.95;3.30;;;16.70;99.90;;;;;;5047774;28;20025;-65
2023/07/06 02:50:49;;;;;;;10.65;3.92;;;16.70;99.90;;;;;;5081769;28;20542;-68
2023/07/06 02:53:15;;;;;;;7.97;4.00;;;16.80;99.90;;;;;;5050176;28;20048;-69
2023/07/06 02:55:41;;;;;;;6.80;3.60;;;16.70;99.90;;;;;;5051742;28;20029;-69
2023/07/06 02:58:06;;;;;;;7.67;3.67;;;16.50;99.90;;;;;;5047927;28;20279;-66
2023/07/06 03:00:32;;;;;;;7.70;4.10;;;16.50;99.90;;;;;;5045986;28;20253;-65
2023/07/06 03:02:58;;;;;;;8.13;4.60;;;16.40;99.90;;;;;;5050872;28;20072;-67
2023/07/06 03:05:24;;;;;;;7.53;3.60;;;16.30;99.90;;;;;;5049723;28;20035;-69
2023/07/06 03:07:54;;;;;;;5.93;4.17;;;16.30;99.90;;;;;;5043165;28;20483;-69
2023/07/06 03:10:22;;;;;;;7.90;3.70;;;16.50;99.90;;;;;;5050409;28;20113;-69
2023/07/06 03:12:48;;;;;;;8.75;4.20;;;16.50;99.90;;;;;;5044397;28;20396;-69
2023/07/06 03:15:14;;;;;;;;;;;16.40;99.90;;;;;;5047120;28;20037;-69
2023/07/06 03:17:40;;;;;;;11.20;4.43;;;16.20;99.90;;;;;;5053149;28;19909;-61
2023/07/06 03:20:18;;;;;;;10.55;5.10;;;16.10;99.90;;;;;;5058175;28;20055;-68
2023/07/06 03:22:50;;;;;;;10.20;4.50;;;16.20;99.90;;;;;;5053981;28;20029;-66
2023/07/06 03:25:16;;;;;;;7.20;3.95;;;16.40;99.90;;;;;;5049917;28;21026;-63
2023/07/06 03:27:43;;;;;;;8.43;4.20;;;16.30;99.90;;;;;;5054267;28;20111;-65
2023/07/06 03:30:11;;;;;;;6.82;4.38;;;16.20;99.90;;;;;;5046326;28;20472;-66
2023/07/06 03:32:37;;;;;;;10.75;4.00;;;16.20;99.90;;;;;;5050123;28;20025;-62
2023/07/06 03:35:09;;;;;;;6.60;4.05;;;16.10;99.90;;;;;;5050291;28;20087;-62
2023/07/06 03:37:37;;;;;;;8.32;4.53;;;16.10;99.90;;;;;;5047998;28;20028;-62
2023/07/06 03:40:05;;;;;;;10.73;4.57;;;16.00;99.90;;;;;;5050263;28;20602;-62
2023/07/06 03:42:31;;;;;;;6.90;4.20;;;16.20;99.90;;;;;;5051366;28;20491;-67
2023/07/06 03:44:57;;;;;;;8.48;3.80;;;16.10;99.90;;;;;;5047465;28;20747;-63
2023/07/06 03:47:26;;;;;;;11.13;4.47;;;16.10;99.90;;;;;;5055653;28;20127;-63
2023/07/06 03:49:53;;;;;;;7.90;4.60;;;16.30;99.90;;;;;;5058286;28;20129;-61
2023/07/06 03:52:18;;;;;;;7.45;3.95;;;16.40;99.90;;;;;;5047751;28;20036;-63
2023/07/06 03:54:47;;;;;;;8.77;3.87;;;16.40;99.90;;;;;;5047252;28;20385;-64
2023/07/06 03:57:16;;;;;;;9.02;3.83;;;16.50;99.90;;;;;;5049455;28;20032;-63
2023/07/06 03:59:41;;;;;;;10.55;4.00;;;16.40;99.90;;;;;;5048858;28;20135;-65
2023/07/06 04:02:08;;;;;;;6.17;3.77;;;16.30;99.90;;;;;;5044269;28;20029;-65
2023/07/06 04:04:34;;;;;;;6.80;3.45;;;16.50;99.90;;;;;;5048227;28;20364;-64
2023/07/06 04:07:00;;;;;;;8.07;3.70;;;16.60;99.90;;;;;;5043409;28;20037;-64
2023/07/06 04:09:26;;;;;;;23.88;7.00;;;16.70;99.90;;;;;;5050915;28;20132;-65
2023/07/06 04:11:52;;;;;;;;;;;16.60;99.90;;;;;;5053648;28;20032;-65
2023/07/06 04:14:24;;;;;;;11.88;4.13;;;16.50;99.90;;;;;;5052252;28;19916;-68
2023/07/06 04:16:51;;;;;;;12.30;4.30;;;16.70;99.90;;;;;;5048375;28;20029;-65
2023/07/06 04:19:17;;;;;;;7.80;4.32;;;16.70;99.90;;;;;;5054471;28;20031;-65
2023/07/06 04:21:42;;;;;;;5.45;4.18;;;16.60;99.90;;;;;;5051682;28;20101;-68
2023/07/06 04:24:08;;;;;;;6.97;4.63;;;16.60;99.90;;;;;;5050422;28;20025;-68
2023/07/06 04:26:34;;;;;;;7.17;4.47;;;16.80;99.90;;;;;;5051663;28;20533;-64
2023/07/06 04:28:59;;;;;;;6.05;4.50;;;16.90;99.90;;;;;;5047907;28;20036;-68
2023/07/06 04:31:25;;;;;;;10.97;4.93;;;16.70;99.90;;;;;;5049706;28;20421;-67
2023/07/06 04:33:51;;;;;;;7.50;4.70;;;16.70;99.90;;;;;;5047711;28;20032;-68
2023/07/06 04:36:17;;;;;;;10.13;5.27;;;16.80;99.90;;;;;;5050358;28;20063;-69
2023/07/06 04:38:43;;;;;;;10.15;5.07;;;17.00;99.90;;;;;;5051015;28;20916;-68
2023/07/06 04:41:09;;;;;;;9.77;4.80;;;17.00;99.90;;;;;;5051825;28;20025;-67
2023/07/06 04:43:35;;;;;;;8.70;4.88;;;17.00;99.90;;;;;;5050258;28;20409;-68
2023/07/06 04:46:00;;;;;;;9.77;5.33;;;17.10;99.90;;;;;;5067016;28;20123;-69
2023/07/06 04:48:26;;;;;;;9.40;5.07;;;17.20;99.90;;;;;;5060971;28;20037;-68
2023/07/06 04:50:53;;;;;;;12.47;4.77;;;17.00;99.90;;;;;;5061535;28;20499;-68
2023/07/06 04:53:20;;;;;;;8.40;3.92;;;17.20;99.90;;;;;;5048611;28;20048;-68
2023/07/06 04:55:46;;;;;;;;;;;17.40;99.90;;;;;;5053118;28;20063;-65
2023/07/06 04:58:12;;;;;;;8.40;4.40;;;17.50;99.90;;;;;;5048755;28;19999;-68
2023/07/06 05:00:39;;;;;;;10.20;4.70;;;17.60;99.90;;;;;;5051869;28;20507;-67
2023/07/06 05:03:07;;;;;;;10.48;4.57;;;17.60;99.90;;;;;;5053916;28;20128;-65
2023/07/06 05:05:36;;;;;;;12.25;4.57;;;17.60;99.90;;;;;;5055744;28;20029;-68
2023/07/06 05:08:02;;;;;;;13.02;4.68;;;17.70;99.90;;;;;;5050607;28;20040;-67
2023/07/06 05:10:28;;;;;;;;;;;17.80;99.90;;;;;;5052770;28;20518;-64
2023/07/06 05:12:55;;;;;;;7.22;5.18;;;17.80;99.90;;;;;;5050399;28;19974;-65
2023/07/06 05:15:22;;;;;;;13.90;5.30;;;17.70;99.90;;;;;;5045830;28;20017;-65
2023/07/06 05:17:48;;;;;;;;;;;18.00;99.90;;;;;;5054113;28;20012;-68
2023/07/06 05:20:14;;;;;;;11.55;5.55;;;18.00;99.90;;;;;;5050753;28;20384;-68
2023/07/06 05:22:40;;;;;;;15.55;5.72;;;18.20;99.90;;;;;;5046086;28;20044;-67
2023/07/06 05:25:10;;;;;;;14.30;5.85;;;18.20;99.90;;;;;;5050193;28;20029;-69
2023/07/06 05:27:37;;;;;;;12.60;6.25;;;18.10;99.90;;;;;;5052342;28;20544;-66
2023/07/06 05:30:03;;;;;;;16.40;6.18;;;18.20;99.90;;;;;;5051054;28;20136;-66
2023/07/06 05:32:29;;;;;;;7.90;5.65;;;18.20;99.90;;;;;;5046455;28;20111;-61
2023/07/06 05:34:55;;;;;;;10.97;6.67;;;18.30;99.90;;;;;;5052221;28;20457;-61
2023/07/06 05:37:20;;;;;;;16.97;7.40;;;18.50;99.90;;;;;;5048547;28;20025;-63
2023/07/06 05:39:47;;;;;;;23.63;9.40;;;18.50;99.90;;;;;;5050831;28;20048;-62
2023/07/06 05:42:13;;;;;;;15.93;7.78;;;18.40;99.90;;;;;;5048873;28;20071;-65
2023/07/06 05:44:39;;;;;;;13.82;8.95;;;18.30;99.90;;;;;;5049499;28;20029;-62
2023/07/06 05:47:07;;;;;;;14.50;9.13;;;18.30;99.90;;;;;;5047033;28;20029;-63
2023/07/06 05:49:33;;;;;;;18.27;9.98;;;18.60;99.90;;;;;;5053653;28;20045;-63
2023/07/06 05:51:59;;;;;;;17.33;9.25;;;18.70;99.90;;;;;;5052939;28;20484;-63
2023/07/06 05:54:24;;;;;;;21.37;9.13;;;18.50;99.90;;;;;;5050193;28;20086;-68
2023/07/06 05:56:50;;;;;;;17.53;9.60;;;19.00;99.90;;;;;;5050885;28;20042;-68
2023/07/06 05:59:16;;;;;;;17.60;9.63;;;19.30;99.90;;;;;;5047524;28;20036;-63
2023/07/06 06:01:42;;;;;;;15.85;10.20;;;19.30;99.90;;;;;;5054656;28;20069;-62
2023/07/06 06:04:08;;;;;;;14.77;9.83;;;19.10;99.90;;;;;;5046795;28;20570;-63
2023/07/06 06:06:47;;;;;;;18.08;10.02;;;19.20;99.90;;;;;;5048300;28;20588;-63
2023/07/06 06:09:14;;;;;;;20.33;10.50;;;19.30;99.90;;;;;;5048092;28;20049;-64
2023/07/06 06:11:40;;;;;;;15.90;10.23;;;19.00;99.90;;;;;;5050716;28;20070;-66
2023/07/06 06:14:06;;;;;;;14.50;10.20;;;19.10;99.90;;;;;;5047931;28;20033;-68
2023/07/06 06:16:32;;;;;;;25.47;10.77;;;19.70;99.90;;;;;;5064258;28;20074;-69
2023/07/06 06:19:01;;;;;;;13.95;9.63;;;21.50;99.90;;;;;;5048674;28;20041;-69
2023/07/06 06:21:30;;;;;;;17.42;9.93;;;21.20;99.90;;;;;;5045386;28;20029;-68
2023/07/06 06:23:59;;;;;;;20.42;10.55;;;21.10;99.90;;;;;;5077157;28;20033;-67
2023/07/06 06:26:25;;;;;;;15.60;9.73;;;20.20;99.90;;;;;;5050651;28;20503;-65
2023/07/06 06:28:51;;;;;;;11.85;9.32;;;20.20;99.90;;;;;;5049953;28;20119;-63
2023/07/06 06:31:17;;;;;;;14.27;8.70;;;20.10;99.90;;;;;;5047836;28;20476;-64
2023/07/06 06:33:46;;;;;;;12.43;7.55;;;22.10;99.90;;;;;;5049894;28;20031;-67
2023/07/06 06:36:13;;;;;;;16.15;8.57;;;21.40;99.90;;;;;;5047246;28;20044;-68
2023/07/06 06:38:39;;;;;;;9.73;7.63;;;21.00;99.90;;;;;;5049488;28;20070;-68
2023/07/06 06:41:07;;;;;;;;;;;21.10;99.90;;;;;;5050778;28;20025;-69
2023/07/06 06:43:40;;;;;;;11.82;6.50;;;22.70;99.90;;;;;;5047892;28;20337;-69
2023/07/06 06:46:07;;;;;;;10.35;7.68;;;21.40;99.90;;;;;;5044123;28;20033;-67
2023/07/06 06:48:33;;;;;;;14.50;7.78;;;21.60;99.90;;;;;;5049539;28;20039;-68
2023/07/06 06:51:00;;;;;;;10.77;8.13;;;21.90;99.90;;;;;;5048744;28;20036;-68
2023/07/06 06:53:26;;;;;;;11.65;8.27;;;21.40;99.90;;;;;;5047568;28;20033;-69
2023/07/06 06:55:52;;;;;;;12.70;7.60;;;21.80;99.90;;;;;;5042723;28;20103;-67
2023/07/06 06:58:20;;;;;;;10.23;7.60;;;22.80;99.90;;;;;;5046104;28;20408;-64
2023/07/06 07:00:59;;;;;;;12.57;7.30;;;24.20;97.50;;;;;;5048172;28;20105;-66
2023/07/06 07:03:28;;;;;;;9.00;6.63;;;25.80;91.30;;;;;;5047596;28;20052;-67
2023/07/06 07:06:13;;;;;;;12.02;7.47;;;26.70;85.60;;;;;;5048027;28;20106;-66
2023/07/06 07:08:49;;;;;;;23.13;8.25;;;24.90;90.90;;;;;;5048238;28;20810;-67
2023/07/06 07:11:19;;;;;;;8.70;5.63;;;24.10;91.90;;;;;;5045937;28;20039;-68
2023/07/06 07:13:45;;;;;;;6.28;5.35;;;24.20;91.70;;;;;;5050591;28;20338;-66
2023/07/06 07:16:14;;;;;;;14.63;7.82;;;23.10;93.80;;;;;;5048341;28;20040;-66
2023/07/06 07:18:40;;;;;;;8.30;5.70;;;22.40;96.10;;;;;;5050565;28;20213;-66
2023/07/06 07:21:06;;;;;;;13.80;5.70;;;22.20;97.30;;;;;;5046382;28;20513;-69
2023/07/06 07:23:43;;;;;;;23.48;8.52;;;21.80;98.30;;;;;;5042398;28;20163;-68
2023/07/06 07:26:12;;;;;;;9.25;5.20;;;21.90;99.50;;;;;;5042857;28;20059;-68
2023/07/06 07:28:38;;;;;;;10.02;5.65;;;22.10;99.80;;;;;;5048200;28;20044;-68
2023/07/06 07:31:07;;;;;;;11.10;6.28;;;21.40;99.20;;;;;;5077906;28;20040;-72
2023/07/06 07:33:34;;;;;;;8.00;5.63;;;21.40;99.90;;;;;;5049286;28;20017;-71
2023/07/06 07:36:01;;;;;;;;;;;21.40;99.90;;;;;;5047189;28;20079;-74
2023/07/06 07:38:26;;;;;;;8.60;5.47;;;21.50;99.90;;;;;;5044629;28;19915;-64
2023/07/06 07:40:58;;;;;;;7.30;5.55;;;21.50;99.90;;;;;;5047847;28;20037;-64
2023/07/06 07:43:25;;;;;;;7.28;5.57;;;21.70;99.90;;;;;;5047704;28;20072;-69
2023/07/06 07:45:55;;;;;;;10.00;6.13;;;21.80;99.90;;;;;;5050008;28;20598;-65
2023/07/06 07:48:23;;;;;;;5.97;4.95;;;21.90;99.90;;;;;;5049752;28;20392;-70
2023/07/06 07:50:51;;;;;;;8.48;5.68;;;22.00;99.60;;;;;;5053842;28;20059;-64
2023/07/06 07:53:18;;;;;;;7.15;5.00;;;21.80;99.90;;;;;;5052053;28;20029;-64
2023/07/06 07:55:44;;;;;;;6.95;4.63;;;21.60;99.90;;;;;;5056913;28;20417;-66
2023/07/06 07:58:10;;;;;;;11.00;5.32;;;21.40;99.90;;;;;;5051190;28;20029;-73
2023/07/06 08:00:35;;;;;;;7.90;5.18;;;21.60;99.90;;;;;;5051833;28;20404;-70
2023/07/06 08:03:04;;;;;;;5.50;4.40;;;21.60;99.90;;;;;;5053879;28;20029;-69
2023/07/06 08:05:31;;;;;;;6.47;5.22;;;21.70;99.90;;;;;;5053531;28;20033;-72
2023/07/06 08:07:57;;;;;;;6.05;4.70;;;21.90;99.90;;;;;;5053327;28;20056;-70
2023/07/06 08:10:23;;;;;;;8.50;5.82;;;21.90;99.90;;;;;;5058214;28;20070;-64
2023/07/06 08:12:49;;;;;;;;;;;21.70;99.90;;;;;;5057085;28;20033;-65
2023/07/06 08:15:15;;;;;;;6.03;4.85;;;21.80;99.90;;;;;;5056640;28;19915;-66
2023/07/06 08:17:41;;;;;;;7.95;5.25;;;22.00;99.30;;;;;;5055376;28;20028;-64
2023/07/06 08:20:10;;;;;;;7.72;5.43;;;22.80;97.90;;;;;;5056791;28;20032;-63
2023/07/06 08:22:36;;;;;;;8.05;5.22;;;23.50;96.00;;;;;;5054947;28;20047;-66
2023/07/06 08:25:07;;;;;;;5.97;5.25;;;22.90;95.70;;;;;;5049396;28;20025;-64
2023/07/06 08:27:33;;;;;;;9.32;5.18;;;22.50;96.30;;;;;;5053648;28;20037;-74
2023/07/06 08:29:58;;;;;;;8.40;5.40;;;23.30;95.80;;;;;;5049637;28;20132;-73
2023/07/06 08:32:24;;;;;;;8.70;4.80;;;24.80;92.30;;;;;;5047398;28;20124;-71
2023/07/06 08:34:51;;;;;;;6.45;4.55;;;27.70;81.40;;;;;;5051221;28;20029;-68
2023/07/06 08:37:18;;;;;;;6.68;5.05;;;28.30;72.90;;;;;;5047914;28;20029;-71
2023/07/06 08:39:44;;;;;;;8.95;4.45;;;28.30;75.10;;;;;;5054010;28;20056;-68
2023/07/06 08:42:14;;;;;;;5.13;4.45;;;28.50;74.40;;;;;;5054986;28;20029;-64
2023/07/06 08:44:49;;;;;;;7.93;4.50;;;32.40;65.10;;;;;;5051820;28;20109;-67
2023/07/06 08:47:16;;;;;;;4.43;3.88;;;32.60;62.40;;;;;;5049718;28;20048;-72
2023/07/06 08:49:43;;;;;;;7.47;4.50;;;32.50;61.90;;;;;;5050341;28;20028;-74
2023/07/06 08:52:12;;;;;;;5.90;4.25;;;30.40;61.90;;;;;;5051317;28;20078;-71
2023/07/06 08:54:39;;;;;;;4.65;4.22;;;28.90;69.90;;;;;;5055504;28;20066;-68
2023/07/06 08:57:25;;;;;;;12.23;4.07;;;28.60;72.30;;;;;;5049488;28;20112;-74
2023/07/06 08:59:51;;;;;;;7.05;4.05;;;27.70;72.50;;;;;;5051354;28;20420;-73
2023/07/06 09:02:25;;;;;;;7.00;4.25;;;27.10;77.00;;;;;;5052232;28;20211;-72
2023/07/06 09:04:56;;;;;;;5.85;4.00;;;28.70;74.30;;;;;;5053973;28;20052;-68
2023/07/06 09:07:34;;;;;;;5.43;4.40;;;31.00;65.90;;;;;;5050339;28;20036;-68
2023/07/06 09:10:01;;;;;;;9.13;3.92;;;35.50;58.90;;;;;;5053908;28;20513;-68
2023/07/06 09:12:34;;;;;;;8.60;3.85;;;35.80;56.40;;;;;;5058084;28;20029;-70
2023/07/06 09:15:02;;;;;;;5.55;4.00;;;36.20;53.10;;;;;;5052423;28;20052;-65
2023/07/06 09:17:28;;;;;;;6.78;3.80;;;35.50;55.40;;;;;;5054791;28;20024;-70
2023/07/06 09:19:53;;;;;;;;;;;34.70;55.60;;;;;;5056932;28;20351;-68
2023/07/06 09:22:22;;;;;;;7.95;4.38;;;37.10;54.70;;;;;;5045843;28;19908;-71
2023/07/06 09:24:49;;;;;;;10.15;3.95;;;36.50;53.40;;;;;;5050802;28;20029;-70
2023/07/06 09:27:22;;;;;;;5.18;3.80;;;36.30;52.50;;;;;;5051947;28;20079;-68
2023/07/06 09:30:23;;;;;;;5.35;3.40;;;38.20;52.20;;;;;;5083336;28;20041;-69
2023/07/06 09:32:53;;;;;;;6.47;3.72;;;38.20;50.10;;;;;;5051064;28;20075;-68
2023/07/06 09:35:22;;;;;;;8.82;3.58;;;40.70;50.20;;;;;;5052031;28;20056;-71
2023/07/06 09:37:51;;;;;;;4.88;3.40;;;38.30;49.10;;;;;;5052099;28;20021;-68
2023/07/06 09:40:17;;;;;;;6.55;3.30;;;38.50;48.00;;;;;;5049440;28;20108;-74
2023/07/06 09:42:44;;;;;;;5.07;3.30;;;37.60;49.90;;;;;;5050343;28;20108;-72
2023/07/06 09:45:30;;;;;;;3.83;3.30;;;40.60;47.70;;;;;;5050250;28;20116;-73
2023/07/06 09:48:01;;;;;;;5.00;2.80;;;40.20;46.70;;;;;;5049242;28;20036;-73
2023/07/06 09:50:35;;;;;;;6.40;2.72;;;39.60;47.60;;;;;;5048089;28;20131;-73
2023/07/06 09:53:07;;;;;;;4.90;2.72;;;40.70;48.00;;;;;;5050602;28;20527;-69
2023/07/06 09:55:32;;;;;;;4.47;2.88;;;41.20;48.90;;;;;;5049508;28;20021;-66
2023/07/06 09:57:59;;;;;;;5.30;3.05;;;40.20;46.10;;;;;;5058138;28;20025;-68
2023/07/06 10:00:46;;;;;;;7.43;4.07;;;38.40;47.80;;;;;;5048129;28;20390;-73
2023/07/06 10:03:44;;;;;;;7.07;3.13;;;40.60;46.60;;;;;;5050925;28;20544;-69
2023/07/06 10:06:29;;;;;;;9.57;5.82;;;42.20;46.60;;;;;;5049404;28;20111;-71
2023/07/06 10:09:08;;;;;;;22.98;3.20;;;40.50;46.10;;;;;;5048198;28;20029;-73
2023/07/06 10:11:42;;;;;;;7.95;5.10;;;39.70;47.80;;;;;;5051619;28;20259;-70
2023/07/06 10:14:20;;;;;;;9.88;3.65;;;41.10;46.80;;;;;;5052627;28;20033;-73
2023/07/06 10:17:02;;;;;;;8.30;4.82;;;39.80;46.40;;;;;;5051489;28;20460;-73
2023/07/06 10:19:56;;;;;;;8.52;3.28;;;41.80;46.20;;;;;;5048894;28;20021;-74
2023/07/06 10:22:38;;;;;;;5.25;3.13;;;41.10;47.30;;;;;;5042494;28;20136;-68
2023/07/06 10:25:33;;;;;;;8.82;4.30;;;40.90;46.50;;;;;;5048758;28;20037;-66
2023/07/06 10:28:07;;;;;;;2.65;2.33;;;38.60;47.20;;;;;;5049415;28;20031;-66
2023/07/06 10:30:40;;;;;;;6.60;3.80;;;36.40;49.20;;;;;;5040610;28;20028;-67
2023/07/06 10:33:17;;;;;;;8.73;3.15;;;33.40;54.30;;;;;;5051609;28;20033;-66
2023/07/06 10:35:46;;;;;;;3.50;2.72;;;31.40;58.70;;;;;;5049025;28;20033;-70
2023/07/06 10:38:12;;;;;;;3.45;2.50;;;31.10;57.00;;;;;;5045502;28;20040;-69
2023/07/06 10:40:38;;;;;;;5.13;1.88;;;30.60;61.10;;;;;;5052084;28;20503;-64
2023/07/06 10:43:13;;;;;;;;;;;30.50;59.00;;;;;;5048445;28;20048;-64
2023/07/06 10:45:59;;;;;;;15.65;3.78;;;30.50;61.80;;;;;;5083862;28;20308;-67
2023/07/06 10:48:25;;;;;;;16.58;2.95;;;29.70;61.00;;;;;;5050402;28;20053;-66
2023/07/06 10:50:59;;;;;;;;;;;29.90;61.10;;;;;;5051058;28;20071;-67
2023/07/06 10:53:36;;;;;;;505.55;163.18;;;30.00;64.70;;;;;;5050993;28;19915;-66
2023/07/06 10:56:02;;;;;;;386.65;134.88;;;30.10;61.00;;;;;;5048635;28;20166;-62
2023/07/06 10:59:02;;;;;;;308.33;109.28;;;30.00;62.70;;;;;;5048933;28;20485;-65
2023/07/06 11:01:39;;;;;;;96.07;33.90;;;29.90;64.20;;;;;;5050396;28;20094;-65
2023/07/06 11:04:53;;;;;;;112.00;36.58;;;30.00;60.70;;;;;;5064169;28;20559;-67
2023/07/06 11:07:38;;;;;;;56.17;19.10;;;30.10;61.50;;;;;;5047216;28;21288;-67
2023/07/06 11:10:15;;;;;;;58.88;18.98;;;30.10;61.00;;;;;;5053455;28;20047;-66
2023/07/06 11:12:50;;;;;;;33.33;13.65;;;29.50;58.80;;;;;;5046824;28;20025;-66
2023/07/06 11:15:17;;;;;;;8.85;3.25;;;29.20;60.70;;;;;;5042463;28;20057;-65
2023/07/06 11:17:48;;;;;;;22.13;8.73;;;29.30;59.50;;;;;;5049490;28;20713;-64
2023/07/06 11:20:26;;;;;;;27.80;10.27;;;29.30;61.50;;;;;;5048620;28;20370;-65
2023/07/06 11:22:57;;;;;;;13.65;6.85;;;29.70;63.20;;;;;;5047425;28;20027;-68
2023/07/06 11:25:26;;;;;;;10.68;4.45;;;29.50;61.50;;;;;;5051081;28;20037;-64
2023/07/06 11:27:59;;;;;;;7.72;4.25;;;29.30;60.70;;;;;;5046909;28;20029;-63
2023/07/06 11:30:33;;;;;;;7.75;3.70;;;29.40;59.80;;;;;;5050781;28;20060;-63
2023/07/06 11:33:13;;;;;;;2.08;1.85;;;29.30;62.20;;;;;;5047824;28;20029;-66
2023/07/06 11:35:45;;;;;;;8.88;3.45;;;29.30;60.00;;;;;;5052698;28;20111;-67
2023/07/06 11:38:22;;;;;;;3.90;2.08;;;29.10;59.70;;;;;;5047414;28;20037;-64
2023/07/06 11:41:06;;;;;;;4.07;2.70;;;28.90;62.20;;;;;;5047577;28;20045;-66
2023/07/06 11:43:57;;;;;;;4.60;1.75;;;29.00;59.10;;;;;;5047955;28;20094;-63
2023/07/06 11:46:32;;;;;;;4.22;2.45;;;29.30;60.90;;;;;;5054510;28;20068;-64
2023/07/06 11:49:20;;;;;;;3.75;2.33;;;29.20;62.90;;;;;;5049034;28;20032;-66
2023/07/06 11:51:48;;;;;;;5.50;2.22;;;29.00;60.90;;;;;;5050009;28;20400;-64
2023/07/06 11:54:43;;;;;;;2.55;1.77;;;29.00;64.60;;;;;;5050676;28;20055;-65
2023/07/06 11:57:25;;;;;;;2.95;1.90;;;29.10;60.70;;;;;;5040822;28;20043;-65
2023/07/06 12:02:50;;;;;;;4.68;1.80;;;29.40;61.10;;;;;;5041671;28;20846;-66
2023/07/06 12:05:45;;;;;;;2.88;1.80;;;29.30;60.90;;;;;;5048004;28;20037;-67
2023/07/06 12:08:35;;;;;;;2.67;2.17;;;29.40;63.90;;;;;;5046645;28;20102;-66
2023/07/06 12:11:18;;;;;;;5.70;2.25;;;29.10;60.10;;;;;;5048245;28;20037;-63
2023/07/06 12:13:45;;;;;;;2.72;2.10;;;29.50;61.30;;;;;;5047472;28;20043;-67
2023/07/06 12:16:11;;;;;;;4.10;1.88;;;29.20;62.10;;;;;;5044869;28;20106;-67
2023/07/06 12:18:38;;;;;;;3.25;2.35;;;29.20;59.10;;;;;;5046886;28;20492;-65
2023/07/06 12:21:05;;;;;;;5.85;1.92;;;28.90;59.40;;;;;;5061390;28;20037;-70
2023/07/06 12:23:31;;;;;;;2.30;1.88;;;29.30;63.00;;;;;;5049120;28;20083;-66
2023/07/06 12:25:57;;;;;;;;;;;29.10;59.90;;;;;;5048215;28;20032;-68
2023/07/06 12:28:30;;;;;;;5.95;2.10;;;29.20;61.40;;;;;;5048527;28;19920;-69
2023/07/06 12:30:59;;;;;;;4.57;2.00;;;29.40;59.50;;;;;;5048130;28;20504;-68
2023/07/06 12:33:28;;;;;;;5.28;1.88;;;29.40;63.40;;;;;;5053697;28;20032;-66
2023/07/06 12:35:54;;;;;;;5.18;2.72;;;29.30;60.50;;;;;;5083557;28;20116;-67
2023/07/06 12:38:20;;;;;;;3.15;2.17;;;29.20;65.80;;;;;;5046448;28;20100;-69
2023/07/06 12:40:46;;;;;;;3.97;1.92;;;29.40;57.20;;;;;;5052590;28;20057;-65
2023/07/06 12:43:35;;;;;;;3.60;2.05;;;29.10;57.50;;;;;;5058418;28;20035;-69
2023/07/06 12:46:01;;;;;;;2.30;1.85;;;28.90;57.30;;;;;;5052252;28;20359;-69
2023/07/06 12:48:26;;;;;;;3.20;2.13;;;29.30;61.40;;;;;;5052855;28;20489;-68
2023/07/06 12:50:54;;;;;;;4.15;1.80;;;29.30;57.10;;;;;;5051878;28;20036;-68
2023/07/06 12:53:33;;;;;;;3.40;2.40;;;29.20;59.60;;;;;;5049898;28;20053;-65
2023/07/06 12:56:20;;;;;;;5.13;2.13;;;29.20;57.60;;;;;;5049720;28;20104;-63
2023/07/06 12:58:54;;;;;;;4.22;1.83;;;28.90;55.10;;;;;;5050601;28;20123;-65
2023/07/06 13:01:21;;;;;;;5.03;2.05;;;28.20;58.30;;;;;;5049222;28;20119;-66
2023/07/06 13:03:52;;;;;;;3.83;2.45;;;28.60;58.00;;;;;;5049708;28;20033;-64